createdAt,value
2019-02-07T04:50:20.836Z,77.62
2019-02-07T04:52:59.050Z,77.69
2019-02-07T04:55:29.554Z,77.57
2019-02-07T04:58:04.696Z,77.50
2019-02-07T05:00:53.378Z,76.98
2019-02-07T05:03:25.824Z,75.97
2019-02-07T05:06:07.003Z,75.04
2019-02-07T05:08:42.142Z,74.44
2019-02-07T05:11:30.999Z,73.89
2019-02-07T05:14:20.993Z,73.13
2019-02-07T05:16:59.095Z,72.54
2019-02-07T05:19:48.004Z,71.72
2019-02-07T05:22:26.170Z,70.80
2019-02-07T05:25:00.800Z,70.60
2019-02-07T05:27:38.809Z,70.69
2019-02-07T05:30:29.944Z,69.74
2019-02-07T05:33:11.053Z,69.50
2019-02-07T05:35:58.114Z,69.20
2019-02-07T05:38:33.147Z,69.05
2019-02-07T05:41:14.087Z,68.78
2019-02-07T05:44:02.598Z,68.54
2019-02-07T05:46:53.064Z,68.16
2019-02-07T05:49:34.633Z,68.10
2019-02-07T05:52:12.446Z,68.12
2019-02-07T05:54:56.544Z,67.94
2019-02-07T05:57:28.954Z,68.02
2019-02-07T06:00:17.242Z,68.02
2019-02-07T06:03:05.960Z,68.10
2019-02-07T06:05:53.274Z,67.72
2019-02-07T06:08:31.200Z,67.60
2019-02-07T06:11:09.313Z,67.80
2019-02-07T06:13:44.080Z,67.26
2019-02-07T06:16:32.035Z,67.26
2019-02-07T06:19:16.050Z,67.28
2019-02-07T06:21:54.062Z,67.19
2019-02-07T06:24:41.495Z,67.48
2019-02-07T06:27:29.970Z,67.06
2019-02-07T06:30:05.090Z,67.16
2019-02-07T06:32:37.142Z,67.01
2019-02-07T06:35:09.451Z,67.00
2019-02-07T06:37:48.165Z,66.79
2019-02-07T06:40:23.180Z,66.61
2019-02-07T06:42:55.243Z,66.73
2019-02-07T06:45:30.061Z,66.55
2019-02-07T06:48:02.492Z,66.58
2019-02-07T06:50:46.840Z,66.53
2019-02-07T06:53:24.810Z,66.23
2019-02-07T06:56:13.203Z,65.76
2019-02-07T06:58:47.963Z,65.55
2019-02-07T07:01:26.196Z,65.79
2019-02-07T07:04:01.219Z,65.90
2019-02-07T07:06:36.356Z,65.86
2019-02-07T07:09:25.467Z,65.38
2019-02-07T07:12:00.236Z,65.50
2019-02-07T07:14:32.331Z,65.46
2019-02-07T07:17:25.858Z,65.14
2019-02-07T07:20:00.836Z,65.09
2019-02-07T07:22:45.923Z,65.41
2019-02-07T07:25:36.094Z,65.40
2019-02-07T07:28:24.318Z,64.85
2019-02-07T07:30:59.414Z,64.73
2019-02-07T07:33:34.202Z,64.68
2019-02-07T07:36:12.462Z,64.57
2019-02-07T07:38:47.347Z,64.33
2019-02-07T07:41:35.735Z,64.12
2019-02-07T07:44:14.226Z,63.70
2019-02-07T07:46:46.274Z,63.56
2019-02-07T07:49:36.373Z,63.73
2019-02-07T07:52:17.845Z,64.04
2019-02-07T07:54:52.994Z,63.02
2019-02-07T07:57:37.036Z,62.89
2019-02-07T08:00:12.760Z,62.77
2019-02-07T08:03:03.406Z,62.66
2019-02-07T08:05:41.094Z,62.20
2019-02-07T08:08:19.403Z,62.23
2019-02-07T08:11:00.577Z,61.62
2019-02-07T08:13:35.824Z,61.68
2019-02-07T08:16:14.202Z,60.73
2019-02-07T08:18:49.007Z,61.30
2019-02-07T08:21:29.953Z,61.08
2019-02-07T08:24:02.177Z,60.75
2019-02-07T08:26:34.697Z,61.28
2019-02-07T08:29:23.247Z,60.85
2019-02-07T08:32:11.720Z,60.16
2019-02-07T08:34:43.774Z,60.68
2019-02-07T08:37:15.834Z,60.37
2019-02-07T08:39:50.557Z,59.73
2019-02-07T08:42:34.605Z,59.22
2019-02-07T08:45:10.072Z,59.04
2019-02-07T08:47:58.470Z,58.41
2019-02-07T08:50:24.737Z,58.37
2019-02-07T08:53:12.362Z,58.10
2019-02-07T08:56:00.628Z,58.04
2019-02-07T08:58:38.518Z,58.00
2019-02-07T09:01:27.177Z,57.32
2019-02-07T09:04:05.253Z,56.83
2019-02-07T09:06:55.478Z,56.21
2019-02-07T09:09:33.793Z,56.11
2019-02-07T09:12:08.415Z,55.67
2019-02-07T09:14:52.670Z,54.45
2019-02-07T09:17:24.937Z,54.95
2019-02-07T09:19:57.051Z,53.51
2019-02-07T09:22:41.365Z,54.08
2019-02-07T09:25:13.507Z,53.40
2019-02-07T09:28:02.109Z,53.14
2019-02-07T09:30:52.004Z,52.80
2019-02-07T09:33:33.489Z,52.66
2019-02-07T09:36:10.106Z,51.23
2019-02-07T09:38:51.382Z,51.79
2019-02-07T09:41:26.047Z,50.78
2019-02-07T09:44:14.276Z,51.08
2019-02-07T09:46:49.725Z,49.87
2019-02-07T09:49:27.734Z,48.96
2019-02-07T09:52:14.953Z,49.22
2019-02-07T09:54:49.928Z,48.33
2019-02-07T09:57:37.004Z,48.64
2019-02-07T10:00:14.809Z,47.76
2019-02-07T10:02:46.972Z,48.28
2019-02-07T10:05:34.309Z,47.34
2019-02-07T10:08:06.771Z,47.44
2019-02-07T10:10:54.925Z,47.41
2019-02-07T10:13:26.972Z,46.32
2019-02-07T10:16:01.641Z,46.06
2019-02-07T10:18:53.550Z,45.94
2019-02-07T10:21:42.112Z,46.09
2019-02-07T10:24:14.163Z,46.10
2019-02-07T10:26:48.860Z,45.79
2019-02-07T10:29:21.281Z,45.57
2019-02-07T10:31:56.101Z,44.86
2019-02-07T10:34:34.104Z,44.41
2019-02-07T10:37:12.214Z,44.23
2019-02-07T10:39:50.521Z,44.08
2019-02-07T10:42:38.774Z,41.92
2019-02-07T10:45:17.498Z,42.51
2019-02-07T10:47:58.421Z,40.90
2019-02-07T10:50:39.611Z,41.20
2019-02-07T10:53:28.305Z,40.13
2019-02-07T10:56:16.838Z,40.44
2019-02-07T10:59:05.078Z,40.09
2019-02-07T11:01:52.642Z,39.23
2019-02-07T11:04:24.944Z,38.82
2019-02-07T11:07:03.013Z,39.17
2019-02-07T11:09:38.571Z,38.23
2019-02-07T11:12:13.598Z,38.33
2019-02-07T11:15:02.007Z,38.03
2019-02-07T11:17:34.673Z,37.32
2019-02-07T11:20:12.728Z,37.64
2019-02-07T11:22:50.744Z,38.45
2019-02-07T11:25:31.716Z,38.10
2019-02-07T11:28:10.554Z,37.45
2019-02-07T11:30:40.665Z,36.69
2019-02-07T11:33:12.732Z,36.95
2019-02-07T11:35:47.566Z,36.78
2019-02-07T11:38:33.048Z,36.90
2019-02-07T11:41:24.163Z,37.30
2019-02-07T11:43:56.612Z,37.27
2019-02-07T11:46:28.911Z,37.76
2019-02-07T11:49:06.900Z,38.39
2019-02-07T11:51:49.650Z,37.72
2019-02-07T11:54:36.981Z,38.58
2019-02-07T11:57:09.127Z,37.97
2019-02-07T11:59:47.212Z,37.90
2019-02-07T12:02:22.575Z,37.92
2019-02-07T12:05:11.469Z,36.89
2019-02-07T12:07:59.885Z,37.11
2019-02-07T12:10:40.998Z,36.57
2019-02-07T12:13:18.666Z,36.29
2019-02-07T12:15:50.703Z,35.33
2019-02-07T12:18:28.637Z,34.40
2019-02-07T12:21:00.700Z,34.50
2019-02-07T12:23:33.891Z,34.98
2019-02-07T12:26:06.161Z,34.84
2019-02-07T12:28:38.577Z,34.95
2019-02-07T12:31:10.640Z,34.54
2019-02-07T12:33:59.261Z,34.05
2019-02-07T12:36:37.779Z,34.47
2019-02-07T12:39:10.767Z,34.47
2019-02-07T12:41:54.916Z,34.63
2019-02-07T12:44:43.160Z,34.47
2019-02-07T12:47:15.508Z,34.62
2019-02-07T12:50:04.163Z,35.15
2019-02-07T12:52:52.639Z,34.29
2019-02-07T12:55:33.522Z,35.36
2019-02-07T12:58:08.349Z,34.98
2019-02-07T13:00:56.289Z,34.38
2019-02-07T13:03:37.109Z,34.80
2019-02-07T13:06:18.135Z,34.50
2019-02-07T13:08:53.296Z,35.06
2019-02-07T13:11:41.842Z,34.32
2019-02-07T13:14:13.909Z,34.92
2019-02-07T13:16:46.379Z,35.11
2019-02-07T13:19:40.559Z,34.70
2019-02-07T13:22:13.043Z,34.73
2019-02-07T13:24:45.102Z,34.14
2019-02-07T13:27:33.801Z,34.25
2019-02-07T13:30:14.878Z,34.57
2019-02-07T13:33:02.524Z,35.00
2019-02-07T13:35:46.842Z,34.87
2019-02-07T13:38:24.935Z,34.64
2019-02-07T13:40:59.961Z,34.75
2019-02-07T13:43:32.001Z,35.17
2019-02-07T13:46:07.166Z,34.90
2019-02-07T13:48:39.321Z,35.24
2019-02-07T13:51:12.739Z,34.53
2019-02-07T13:53:51.451Z,34.71
2019-02-07T13:56:39.802Z,40.14
2019-02-07T13:59:14.930Z,35.26
2019-02-07T14:01:50.081Z,39.44
2019-02-07T14:04:38.734Z,36.82
2019-02-07T14:07:11.219Z,35.21
2019-02-07T14:09:44.409Z,36.04
2019-02-07T14:12:16.470Z,35.85
2019-02-07T14:14:54.521Z,36.04
2019-02-07T14:17:41.936Z,36.40
2019-02-07T14:20:23.044Z,36.63
2019-02-07T14:22:58.378Z,37.04
2019-02-07T14:25:42.273Z,37.10
2019-02-07T14:28:23.347Z,37.02
2019-02-07T14:31:01.888Z,37.15
2019-02-07T14:33:51.994Z,37.45
2019-02-07T14:36:26.805Z,37.34
2019-02-07T14:38:58.953Z,37.52
2019-02-07T14:41:43.209Z,38.06
2019-02-07T14:44:31.827Z,39.35
2019-02-07T14:47:02.399Z,39.03
2019-02-07T14:49:34.676Z,39.08
2019-02-07T14:52:05.095Z,39.33
2019-02-07T14:54:35.497Z,40.40
2019-02-07T14:57:05.988Z,39.65
2019-02-07T14:59:36.455Z,42.44
2019-02-07T15:02:06.884Z,39.62
2019-02-07T15:04:37.550Z,40.04
2019-02-07T15:07:07.976Z,40.90
2019-02-07T15:09:38.512Z,41.12
2019-02-07T15:12:08.905Z,41.21
2019-02-07T15:14:39.304Z,41.37
2019-02-07T15:17:09.996Z,41.44
2019-02-07T15:19:41.448Z,41.45
2019-02-07T15:22:11.885Z,41.68
2019-02-07T15:24:42.414Z,41.71
2019-02-07T15:27:13.079Z,42.32
2019-02-07T15:29:43.536Z,42.36
2019-02-07T15:32:14.354Z,42.36
2019-02-07T15:34:44.804Z,43.02
2019-02-07T15:37:15.373Z,43.27
2019-02-07T15:39:45.933Z,43.55
2019-02-07T15:42:16.439Z,43.61
2019-02-07T15:44:46.972Z,44.95
2019-02-07T15:47:17.364Z,44.28
2019-02-07T15:49:47.834Z,44.67
2019-02-07T15:52:18.258Z,44.60
2019-02-07T15:54:48.844Z,44.80
2019-02-07T15:57:19.261Z,45.16
2019-02-07T15:59:50.714Z,45.50
2019-02-07T16:02:21.244Z,45.59
2019-02-07T16:04:51.886Z,45.56
2019-02-07T16:07:22.415Z,45.62
2019-02-07T16:09:54.483Z,45.36
2019-02-07T16:12:25.419Z,45.06
2019-02-07T16:14:55.815Z,45.50
2019-02-07T16:17:26.274Z,45.24
2019-02-07T16:19:56.813Z,45.24
2019-02-07T16:22:27.238Z,45.25
2019-02-07T16:24:57.655Z,45.51
2019-02-07T16:27:28.154Z,45.51
2019-02-07T16:29:58.634Z,46.11
2019-02-07T16:32:29.120Z,45.99
2019-02-07T16:34:59.554Z,45.76
2019-02-07T16:37:29.969Z,45.67
2019-02-07T16:40:00.752Z,46.18
2019-02-07T16:42:31.241Z,46.50
2019-02-07T16:45:03.030Z,46.46
2019-02-07T16:47:37.008Z,46.77
2019-02-07T16:50:13.898Z,46.91
2019-02-07T16:52:46.057Z,46.90
2019-02-07T16:55:17.877Z,46.97
2019-02-07T16:57:49.903Z,47.17
2019-02-07T17:00:25.951Z,47.42
2019-02-07T17:02:57.064Z,47.36
2019-02-07T17:05:27.735Z,47.48
2019-02-07T17:07:58.358Z,47.44
2019-02-07T17:10:37.963Z,47.56
2019-02-07T17:13:10.729Z,47.38
2019-02-07T17:15:41.422Z,47.71
2019-02-07T17:18:12.901Z,47.47
2019-02-07T17:20:43.410Z,47.47
2019-02-07T17:23:13.833Z,47.86
2019-02-07T17:25:44.244Z,47.61
2019-02-07T17:28:15.167Z,47.84
2019-02-07T17:30:45.812Z,47.99
2019-02-07T17:33:16.427Z,48.01
2019-02-07T17:35:46.861Z,48.03
2019-02-07T17:38:17.259Z,48.12
2019-02-07T17:40:47.715Z,48.57
2019-02-07T17:43:18.255Z,48.19
2019-02-07T17:45:48.886Z,48.34
2019-02-07T17:48:20.446Z,48.47
2019-02-07T17:50:50.831Z,48.39
2019-02-07T17:53:21.254Z,48.37
2019-02-07T17:55:51.931Z,48.37
2019-02-07T17:58:23.445Z,48.22
2019-02-07T18:01:01.437Z,48.57
2019-02-07T18:03:32.970Z,48.05
2019-02-07T18:06:04.719Z,48.15
2019-02-07T18:08:35.339Z,48.19
2019-02-07T18:11:05.818Z,48.19
2019-02-07T18:13:36.286Z,48.25
2019-02-07T18:16:06.774Z,48.34
2019-02-07T18:18:37.319Z,48.73
2019-02-07T18:21:07.715Z,48.77
2019-02-07T18:23:38.255Z,49.07
2019-02-07T18:26:08.704Z,49.20
2019-02-07T18:28:39.102Z,48.88
2019-02-07T18:31:09.510Z,48.91
2019-02-07T18:33:41.188Z,49.01
2019-02-07T18:36:11.967Z,49.09
2019-02-07T18:38:42.371Z,49.26
2019-02-07T18:41:12.867Z,49.72
2019-02-07T18:43:43.285Z,49.69
2019-02-07T18:46:13.693Z,49.87
2019-02-07T18:48:44.166Z,49.94
2019-02-07T18:51:14.637Z,49.39
2019-02-07T18:53:45.060Z,49.62
2019-02-07T18:56:15.473Z,50.27
2019-02-07T18:58:45.947Z,49.47
2019-02-07T19:01:16.347Z,49.25
2019-02-07T19:03:47.028Z,49.11
2019-02-07T19:06:17.428Z,49.62
2019-02-07T19:08:47.824Z,49.50
2019-02-07T19:11:18.303Z,49.84
2019-02-07T19:13:48.705Z,49.70
2019-02-07T19:16:19.107Z,54.19
2019-02-07T19:18:49.792Z,50.96
2019-02-07T19:21:20.218Z,52.61
2019-02-07T19:23:50.640Z,53.14
2019-02-07T19:26:21.172Z,53.37
2019-02-07T19:28:51.554Z,53.36
2019-02-07T19:31:22.075Z,53.92
2019-02-07T19:33:52.498Z,54.56
2019-02-07T19:36:22.991Z,56.28
2019-02-07T19:38:53.380Z,56.64
2019-02-07T19:41:23.782Z,56.33
2019-02-07T19:43:54.231Z,56.80
2019-02-07T19:46:24.976Z,57.48
2019-02-07T19:48:55.501Z,58.52
2019-02-07T19:51:26.032Z,59.48
2019-02-07T19:53:56.432Z,62.97
2019-02-07T19:56:26.820Z,61.47
2019-02-07T19:58:57.227Z,61.70
2019-02-07T20:01:27.620Z,62.02
2019-02-07T20:03:58.031Z,62.27
2019-02-07T20:06:28.499Z,62.90
2019-02-07T20:08:58.918Z,64.14
2019-02-07T20:11:30.828Z,64.28
2019-02-07T20:14:01.514Z,64.93
2019-02-07T20:16:31.958Z,65.80
2019-02-07T20:19:02.372Z,67.76
2019-02-07T20:21:32.800Z,68.50
2019-02-07T20:24:03.331Z,68.04
2019-02-07T20:26:33.723Z,68.20
2019-02-07T20:29:04.192Z,69.05
2019-02-07T20:31:34.603Z,68.34
2019-02-07T20:34:05.093Z,68.50
2019-02-07T20:36:35.815Z,68.96
2019-02-07T20:39:07.536Z,68.98
2019-02-07T20:41:38.002Z,68.95
2019-02-07T20:44:08.482Z,69.24
2019-02-07T20:46:38.959Z,69.47
2019-02-07T20:49:10.031Z,69.63
2019-02-07T20:51:40.500Z,70.07
2019-02-07T20:54:10.928Z,70.48
2019-02-07T20:56:41.398Z,70.72
2019-02-07T20:59:11.890Z,70.08
2019-02-07T21:01:42.309Z,70.34
2019-02-07T21:04:12.841Z,70.35
2019-02-07T21:06:43.272Z,70.65
2019-02-07T21:09:13.705Z,70.85
2019-02-07T21:11:44.099Z,74.09
2019-02-07T21:14:14.767Z,76.24
2019-02-07T21:16:45.171Z,76.10
2019-02-07T21:19:15.624Z,75.58
